Time;durP1;ratioP1;P1;durP2;ratioP2;P2;SDS_P1;SDS_P2;PMS_P1;PMS_P2;Temp;Humidity;BMP_temperature;BMP_pressure;BME280_temperature;BME280_humidity;BME280_pressure;Samples;Min_cycle;Max_cycle;Signal;HPM_P1;HPM_P2
2022/01/13 03:45:50;;;;;;;49.55;27.42;;;2.50;91.00;;;;;;5522646;24;20250;-83
2022/01/13 03:48:16;;;;;;;49.33;26.90;;;2.50;90.90;;;;;;4804698;29;20054;-83
2022/01/13 03:50:43;;;;;;;51.10;26.25;;;2.60;90.90;;;;;;4790082;29;20070;-83
2022/01/13 03:53:52;;;;;;;50.67;27.80;;;2.60;91.00;;;;;;4820168;29;20046;-83
2022/01/13 03:56:56;;;;;;;52.33;27.88;;;2.70;90.90;;;;;;4750493;30;20298;-82
2022/01/13 03:59:28;;;;;;;52.65;29.38;;;2.70;90.70;;;;;;4772348;29;20032;-82
2022/01/13 04:02:07;;;;;;;58.47;27.63;;;2.70;90.80;;;;;;4747222;30;20051;-83
2022/01/13 04:04:36;;;;;;;49.55;27.75;;;2.70;91.10;;;;;;4762274;30;20041;-82
2022/01/13 04:07:07;;;;;;;54.00;26.85;;;2.70;90.80;;;;;;4755008;30;20071;-82
2022/01/13 04:09:33;;;;;;;53.17;27.83;;;2.60;90.70;;;;;;4744190;30;20036;-83
2022/01/13 04:12:04;;;;;;;49.30;27.70;;;2.80;90.90;;;;;;4759730;30;20135;-84
2022/01/13 04:14:44;;;;;;;47.70;27.02;;;2.80;90.60;;;;;;4715441;30;20057;-84
2022/01/13 04:17:15;;;;;;;52.00;28.08;;;2.80;90.40;;;;;;4742544;30;20115;-83
2022/01/13 04:19:42;;;;;;;50.58;26.83;;;2.90;90.50;;;;;;4756748;30;20040;-83
2022/01/13 04:22:09;;;;;;;51.22;26.83;;;2.90;90.20;;;;;;4758908;30;20032;-83
2022/01/13 04:24:42;;;;;;;51.47;27.60;;;2.80;90.20;;;;;;4769267;30;20059;-82
2022/01/13 04:27:09;;;;;;;51.40;28.40;;;2.70;90.30;;;;;;4747770;30;20048;-83
2022/01/13 04:29:38;;;;;;;48.97;27.50;;;2.70;90.30;;;;;;4743528;30;20046;-83
2022/01/13 04:32:07;;;;;;;54.95;28.08;;;2.70;90.50;;;;;;4728984;29;20039;-82
2022/01/13 04:34:34;;;;;;;52.08;28.35;;;2.70;90.50;;;;;;4816534;29;20084;-82
2022/01/13 04:37:01;;;;;;;52.28;29.08;;;2.60;90.40;;;;;;4791464;29;20054;-81
2022/01/13 04:39:32;;;;;;;54.13;28.17;;;2.60;90.50;;;;;;4818016;29;20390;-83
2022/01/13 04:41:58;;;;;;;60.47;29.15;;;2.60;90.60;;;;;;4819528;29;20346;-83
2022/01/13 04:44:26;;;;;;;50.70;26.08;;;2.50;90.50;;;;;;4835509;29;20034;-81
2022/01/13 04:46:54;;;;;;;59.90;30.08;;;2.50;90.60;;;;;;4805991;29;20357;-82
2022/01/13 04:49:21;;;;;;;61.58;29.67;;;2.40;90.80;;;;;;4816749;29;20037;-81
2022/01/13 04:51:49;;;;;;;63.40;31.67;;;2.40;90.80;;;;;;4813360;29;20031;-83
2022/01/13 04:54:15;;;;;;;52.65;28.48;;;2.40;90.80;;;;;;4785720;29;20295;-83
2022/01/13 04:57:05;;;;;;;55.33;29.23;;;2.40;90.90;;;;;;4813027;29;20331;-82
2022/01/13 04:59:30;;;;;;;57.83;31.48;;;2.40;91.20;;;;;;4793759;29;20050;-82
2022/01/13 05:01:56;;;;;;;55.47;29.00;;;2.40;90.80;;;;;;4814884;29;20043;-83
2022/01/13 05:04:22;;;;;;;57.35;30.65;;;2.40;90.90;;;;;;4801088;29;20224;-83
2022/01/13 05:06:48;;;;;;;59.80;30.73;;;2.40;90.90;;;;;;4831022;29;20041;-83
2022/01/13 05:09:14;;;;;;;54.25;29.08;;;2.40;90.90;;;;;;4816045;29;20046;-83
2022/01/13 05:11:39;;;;;;;64.20;30.83;;;2.40;90.90;;;;;;4800995;29;20181;-83
2022/01/13 05:14:05;;;;;;;63.55;30.83;;;2.40;91.00;;;;;;4815985;29;20035;-82
2022/01/13 05:16:50;;;;;;;58.40;29.27;;;2.40;91.00;;;;;;4830876;29;20038;-83
2022/01/13 05:19:20;;;;;;;63.13;31.85;;;2.50;90.90;;;;;;4818186;29;20035;-83
2022/01/13 05:22:15;;;;;;;60.00;31.75;;;2.50;90.80;;;;;;4830905;29;20030;-83
2022/01/13 05:24:32;;;;;;;59.72;31.23;;;2.50;90.70;;;;;;4815954;29;20062;-83
2022/01/13 05:26:57;;;;;;;60.72;30.92;;;2.50;90.70;;;;;;4814552;29;20261;-83
2022/01/13 05:29:23;;;;;;;64.97;31.42;;;2.50;90.80;;;;;;4800639;29;20238;-82
2022/01/13 05:31:50;;;;;;;68.20;31.35;;;2.40;90.80;;;;;;4815533;29;20342;-83
2022/01/13 05:34:17;;;;;;;61.15;31.70;;;2.40;90.80;;;;;;4830914;29;20030;-83
2022/01/13 05:36:42;;;;;;;67.10;33.20;;;2.40;90.80;;;;;;4815480;29;20050;-81
2022/01/13 05:39:10;;;;;;;60.60;33.50;;;2.50;90.90;;;;;;4830655;29;20031;-82
2022/01/13 05:41:36;;;;;;;60.90;30.13;;;2.40;90.90;;;;;;4830428;29;20365;-83
2022/01/13 05:44:02;;;;;;;69.75;31.35;;;2.40;90.90;;;;;;4815402;29;20031;-83
2022/01/13 05:46:27;;;;;;;59.20;30.65;;;2.50;91.00;;;;;;4798746;29;20168;-83
2022/01/13 05:48:56;;;;;;;66.03;33.08;;;2.40;91.00;;;;;;4779372;29;20046;-83
2022/01/13 05:51:24;;;;;;;56.03;29.45;;;2.50;91.10;;;;;;4809513;29;20031;-82
2022/01/13 05:53:49;;;;;;;56.53;31.58;;;2.50;91.30;;;;;;4818509;29;20088;-83
2022/01/13 05:56:16;;;;;;;59.08;31.95;;;2.50;90.80;;;;;;4811314;29;20098;-82
2022/01/13 05:58:42;;;;;;;63.60;33.28;;;2.50;91.00;;;;;;4792071;29;20035;-83
2022/01/13 06:01:09;;;;;;;65.97;32.22;;;2.60;91.20;;;;;;4820089;29;20047;-85
2022/01/13 06:03:35;;;;;;;64.95;33.05;;;2.50;90.70;;;;;;4806188;29;20023;-83
2022/01/13 06:06:01;;;;;;;68.03;33.80;;;2.50;90.90;;;;;;4804313;29;20038;-82
2022/01/13 06:08:26;;;;;;;64.72;32.47;;;2.50;90.90;;;;;;4796496;29;20071;-82
2022/01/13 06:10:57;;;;;;;63.85;33.17;;;2.50;90.90;;;;;;4798388;29;20077;-82
2022/01/13 06:13:23;;;;;;;63.22;32.65;;;2.50;91.00;;;;;;4782133;29;20039;-82
2022/01/13 06:15:49;;;;;;;70.95;34.10;;;2.50;90.90;;;;;;4774665;29;20126;-84
2022/01/13 06:18:16;;;;;;;67.78;34.13;;;2.50;91.00;;;;;;4764450;30;20023;-82
2022/01/13 06:20:43;;;;;;;79.05;34.35;;;2.50;91.00;;;;;;4783956;29;20088;-84
2022/01/13 06:23:10;;;;;;;71.47;35.45;;;2.50;91.30;;;;;;4784202;29;20039;-83
2022/01/13 06:25:35;;;;;;;;;;;2.60;91.00;;;;;;4772542;30;20038;-84
2022/01/13 06:28:02;;;;;;;66.60;34.20;;;2.60;90.90;;;;;;4781042;30;19913;-83
2022/01/13 06:30:31;;;;;;;73.35;35.88;;;2.70;90.90;;;;;;4782831;29;20560;-83
2022/01/13 06:32:57;;;;;;;66.55;33.80;;;2.70;90.90;;;;;;4812234;29;20401;-83
2022/01/13 06:35:23;;;;;;;66.70;34.05;;;2.80;90.90;;;;;;4808793;29;20055;-82
2022/01/13 06:37:49;;;;;;;64.00;34.03;;;2.70;90.70;;;;;;4785931;29;20050;-84
2022/01/13 06:40:16;;;;;;;71.18;34.78;;;2.70;90.90;;;;;;4822933;29;20039;-83
2022/01/13 06:42:42;;;;;;;62.30;32.88;;;2.70;90.90;;;;;;4811803;29;20063;-83
2022/01/13 06:45:13;;;;;;;66.38;34.95;;;2.70;90.90;;;;;;4827144;29;20054;-83
2022/01/13 06:47:40;;;;;;;69.72;35.13;;;2.70;91.00;;;;;;4791078;29;20047;-84
2022/01/13 06:50:07;;;;;;;65.80;35.50;;;2.70;90.90;;;;;;4806694;29;20072;-84
2022/01/13 06:52:33;;;;;;;67.95;34.55;;;2.70;91.00;;;;;;4794019;29;20038;-83
2022/01/13 06:54:59;;;;;;;69.70;34.75;;;2.70;91.00;;;;;;4781821;29;20043;-83
2022/01/13 06:57:24;;;;;;;62.90;33.97;;;2.70;90.90;;;;;;4782678;29;20106;-83
2022/01/13 06:59:52;;;;;;;68.13;33.63;;;2.70;91.10;;;;;;4790993;30;20055;-85
2022/01/13 07:02:17;;;;;;;64.93;33.78;;;2.80;91.00;;;;;;4811263;29;20327;-83
2022/01/13 07:04:43;;;;;;;71.90;34.85;;;2.80;91.10;;;;;;4810976;29;20110;-82
2022/01/13 07:07:10;;;;;;;71.78;36.70;;;2.80;91.00;;;;;;4794964;29;20106;-83
2022/01/13 07:09:36;;;;;;;68.93;33.90;;;2.80;91.00;;;;;;4793697;29;20042;-83
2022/01/13 07:12:02;;;;;;;69.57;34.75;;;2.90;91.10;;;;;;4823643;29;20047;-84
2022/01/13 07:14:28;;;;;;;69.70;35.35;;;2.90;90.90;;;;;;4828699;29;20243;-84
2022/01/13 07:16:53;;;;;;;70.47;35.60;;;3.00;91.00;;;;;;4804366;29;20141;-84
2022/01/13 07:19:19;;;;;;;67.45;35.42;;;3.00;90.70;;;;;;4832192;29;20070;-83
2022/01/13 07:21:45;;;;;;;67.85;35.92;;;3.00;90.80;;;;;;4817252;29;20098;-82
2022/01/13 07:24:12;;;;;;;71.45;35.75;;;3.20;90.80;;;;;;4832031;29;20030;-83
2022/01/13 07:26:38;;;;;;;78.10;34.80;;;3.20;90.70;;;;;;4816845;29;20211;-84
2022/01/13 07:29:07;;;;;;;72.60;35.35;;;3.30;90.50;;;;;;4829640;29;20039;-83
2022/01/13 07:31:33;;;;;;;66.72;34.42;;;3.30;90.50;;;;;;4801679;29;20230;-84
2022/01/13 07:33:59;;;;;;;62.95;33.03;;;3.40;90.50;;;;;;4816841;29;20035;-84
2022/01/13 07:36:25;;;;;;;67.03;34.05;;;3.40;90.60;;;;;;4816901;29;20073;-84
2022/01/13 07:38:51;;;;;;;64.13;31.85;;;3.50;90.40;;;;;;4832383;29;20031;-84
2022/01/13 07:41:17;;;;;;;63.20;31.17;;;3.50;90.40;;;;;;4816345;29;20039;-84
2022/01/13 07:43:47;;;;;;;62.58;32.17;;;3.50;90.20;;;;;;4816715;29;20084;-84
2022/01/13 07:46:13;;;;;;;64.70;31.38;;;3.50;90.30;;;;;;4814314;29;20104;-83
2022/01/13 07:48:39;;;;;;;64.07;31.73;;;3.50;90.30;;;;;;4798763;29;20053;-84
2022/01/13 07:51:06;;;;;;;62.80;33.33;;;3.50;90.30;;;;;;4816752;29;20035;-83
2022/01/13 07:53:32;;;;;;;64.95;32.10;;;3.40;90.30;;;;;;4816713;29;20046;-83
2022/01/13 07:55:57;;;;;;;70.40;34.47;;;3.50;90.30;;;;;;4800965;29;20042;-84
2022/01/13 07:58:23;;;;;;;63.33;32.08;;;3.50;90.50;;;;;;4816444;29;20106;-84
2022/01/13 08:00:49;;;;;;;63.38;34.08;;;3.40;89.40;;;;;;4815009;29;20027;-82
2022/01/13 08:03:15;;;;;;;64.72;33.83;;;3.40;89.50;;;;;;4816143;29;20042;-85
2022/01/13 08:05:40;;;;;;;65.68;33.22;;;3.40;89.50;;;;;;4816409;29;20031;-84
2022/01/13 08:08:06;;;;;;;62.45;33.63;;;3.50;89.90;;;;;;4816101;29;20238;-85
2022/01/13 08:10:33;;;;;;;61.75;32.65;;;3.50;89.50;;;;;;4812383;29;20027;-85
2022/01/13 08:12:58;;;;;;;61.40;32.08;;;3.40;88.70;;;;;;4810057;29;20038;-84
2022/01/13 08:15:24;;;;;;;67.65;34.25;;;3.40;89.10;;;;;;4799255;29;20027;-84
2022/01/13 08:20:35;;;;;;;66.15;33.58;;;3.40;88.90;;;;;;4830591;29;20060;-84
2022/01/13 08:23:02;;;;;;;67.90;33.15;;;3.40;88.90;;;;;;4801060;29;20041;-84
2022/01/13 08:25:29;;;;;;;59.85;31.40;;;3.50;89.00;;;;;;4831043;29;20027;-84
2022/01/13 08:27:55;;;;;;;;;;;3.50;88.60;;;;;;4814908;29;20046;-83
2022/01/13 08:30:21;;;;;;;67.40;31.87;;;3.60;88.50;;;;;;4816775;29;19966;-84
2022/01/13 08:32:47;;;;;;;61.13;32.30;;;3.70;87.60;;;;;;4813010;29;20065;-83
2022/01/13 08:35:13;;;;;;;68.05;33.13;;;3.70;87.90;;;;;;4830838;29;20022;-84
2022/01/13 08:37:40;;;;;;;63.53;31.25;;;3.70;87.30;;;;;;4815755;29;20038;-85
2022/01/13 08:40:08;;;;;;;58.80;31.50;;;3.60;87.30;;;;;;4816897;29;20054;-83
2022/01/13 08:42:35;;;;;;;70.97;33.90;;;3.50;87.80;;;;;;4830960;29;20053;-84
2022/01/13 08:45:01;;;;;;;60.70;33.30;;;3.50;88.00;;;;;;4830872;29;20031;-84
2022/01/13 08:47:27;;;;;;;73.22;34.63;;;3.50;88.40;;;;;;4809365;29;20236;-84
2022/01/13 08:49:53;;;;;;;62.42;31.33;;;3.60;88.70;;;;;;4800382;29;20034;-84
2022/01/13 08:52:19;;;;;;;69.43;35.97;;;3.70;88.20;;;;;;4815434;29;20047;-83
2022/01/13 08:54:46;;;;;;;89.30;41.33;;;3.80;88.10;;;;;;4798078;29;20085;-85
2022/01/13 08:57:12;;;;;;;;;;;3.90;87.90;;;;;;4792537;29;20362;-84
2022/01/13 08:59:38;;;;;;;83.43;36.92;;;4.00;86.80;;;;;;4799287;29;19917;-82
2022/01/13 09:02:05;;;;;;;67.63;35.10;;;4.00;86.60;;;;;;4797215;29;20037;-84
2022/01/13 09:04:31;;;;;;;;;;;4.00;86.30;;;;;;4809982;29;20027;-85
2022/01/13 09:06:57;;;;;;;64.87;32.57;;;4.10;86.00;;;;;;4791840;29;19945;-84
2022/01/13 09:09:23;;;;;;;65.95;33.92;;;4.10;85.20;;;;;;4813152;29;20362;-85
2022/01/13 09:11:48;;;;;;;59.22;29.73;;;4.20;85.00;;;;;;4811749;29;20033;-85
2022/01/13 09:14:16;;;;;;;62.80;32.55;;;4.20;84.40;;;;;;4801303;29;20036;-84
2022/01/13 09:16:45;;;;;;;83.80;31.27;;;4.30;84.70;;;;;;4778570;30;20039;-83
2022/01/13 09:19:13;;;;;;;58.63;30.48;;;4.30;84.40;;;;;;4825291;29;20034;-85
2022/01/13 09:21:42;;;;;;;54.33;29.15;;;4.40;83.30;;;;;;4825696;29;20032;-84
2022/01/13 09:24:13;;;;;;;56.05;29.80;;;4.40;83.20;;;;;;4796027;29;20087;-85
2022/01/13 09:26:39;;;;;;;48.72;26.75;;;4.40;83.40;;;;;;4820534;29;20161;-85
2022/01/13 09:29:06;;;;;;;50.45;26.48;;;4.50;83.00;;;;;;4808801;29;20039;-84
2022/01/13 09:31:36;;;;;;;;;;;4.60;82.50;;;;;;4812197;29;20078;-84
2022/01/13 09:34:03;;;;;;;44.72;23.92;;;4.70;81.90;;;;;;4806826;29;19909;-84
2022/01/13 09:36:30;;;;;;;44.35;24.13;;;4.70;81.10;;;;;;4788674;29;20050;-84
2022/01/13 09:39:02;;;;;;;42.88;22.95;;;4.70;81.30;;;;;;4808128;29;20043;-83
2022/01/13 09:41:30;;;;;;;42.58;23.67;;;4.70;80.60;;;;;;4811193;29;20039;-85
2022/01/13 09:43:58;;;;;;;45.85;23.88;;;4.80;80.70;;;;;;4798967;29;20026;-85
2022/01/13 09:46:26;;;;;;;40.63;22.73;;;4.80;79.70;;;;;;4811878;29;20359;-85
2022/01/13 09:48:54;;;;;;;51.45;24.48;;;4.90;80.30;;;;;;4792055;29;20354;-85
2022/01/13 09:51:30;;;;;;;43.85;24.58;;;5.10;79.70;;;;;;4789194;29;20039;-84
2022/01/13 09:53:56;;;;;;;39.80;22.52;;;5.20;78.30;;;;;;4790682;29;20027;-85
2022/01/13 09:56:22;;;;;;;49.17;22.65;;;5.30;78.60;;;;;;4779128;29;20039;-86
2022/01/13 09:58:48;;;;;;;43.53;24.70;;;5.50;77.20;;;;;;4778419;29;20141;-84
2022/01/13 10:01:32;;;;;;;44.00;23.20;;;5.60;78.00;;;;;;4788487;29;20039;-85
2022/01/13 10:03:57;;;;;;;42.10;22.10;;;5.70;76.00;;;;;;4813631;29;20090;-85
2022/01/13 10:06:23;;;;;;;42.47;22.60;;;5.50;75.30;;;;;;4824497;29;20338;-85
2022/01/13 10:08:54;;;;;;;37.92;18.98;;;5.50;75.80;;;;;;4779841;29;20049;-85
2022/01/13 10:11:41;;;;;;;44.17;22.33;;;5.50;76.00;;;;;;4777537;29;20358;-85
2022/01/13 10:17:04;;;;;;;37.42;21.58;;;5.50;76.30;;;;;;4823982;29;20227;-85
2022/01/13 10:19:32;;;;;;;38.70;19.52;;;5.60;76.60;;;;;;4794052;29;20235;-85
2022/01/13 10:22:08;;;;;;;37.42;21.38;;;5.60;75.00;;;;;;4804728;29;20123;-85
2022/01/13 10:24:36;;;;;;;37.25;20.42;;;5.60;76.50;;;;;;4822163;29;20027;-85
2022/01/13 10:27:10;;;;;;;33.13;19.60;;;5.60;74.60;;;;;;4825612;29;20357;-85
2022/01/13 10:29:45;;;;;;;38.95;20.83;;;5.70;74.70;;;;;;4803249;29;20026;-84
2022/01/13 10:32:20;;;;;;;38.47;22.25;;;5.60;74.80;;;;;;4806414;29;20041;-84
2022/01/13 10:34:48;;;;;;;34.72;20.15;;;5.60;75.30;;;;;;4812831;29;20035;-84
2022/01/13 10:37:28;;;;;;;35.28;21.33;;;5.70;75.10;;;;;;4807249;29;20075;-84
2022/01/13 10:39:54;;;;;;;40.10;20.30;;;5.80;75.30;;;;;;4807293;29;20035;-85
2022/01/13 10:45:49;;;;;;;37.97;20.27;;;5.90;74.20;;;;;;4811714;29;20037;-85
2022/01/13 10:48:24;;;;;;;35.80;19.55;;;5.90;73.40;;;;;;4805018;29;20354;-86
2022/01/13 10:51:05;;;;;;;33.28;19.05;;;6.00;73.10;;;;;;4804764;29;20338;-84
2022/01/13 10:53:39;;;;;;;45.40;21.63;;;6.10;72.30;;;;;;4802773;29;20110;-85
2022/01/13 10:56:14;;;;;;;40.15;20.55;;;6.10;72.50;;;;;;4797403;29;20031;-84
2022/01/13 10:58:47;;;;;;;32.97;19.20;;;6.20;71.90;;;;;;4822586;29;20097;-84
2022/01/13 11:01:14;;;;;;;30.40;19.00;;;6.20;72.20;;;;;;4828196;29;20235;-84
2022/01/13 11:03:42;;;;;;;51.05;22.25;;;6.10;72.10;;;;;;4812835;29;20031;-84
2022/01/13 11:06:10;;;;;;;36.42;19.92;;;6.20;72.40;;;;;;4813041;29;20261;-85
2022/01/13 11:08:41;;;;;;;34.38;19.40;;;6.20;71.80;;;;;;4813120;29;20031;-85
2022/01/13 11:11:33;;;;;;;32.97;18.88;;;6.30;71.80;;;;;;4828219;29;20035;-84
2022/01/13 11:14:08;;;;;;;35.20;19.40;;;6.20;71.10;;;;;;4828088;29;20054;-82
2022/01/13 11:16:36;;;;;;;36.15;19.10;;;6.20;71.20;;;;;;4806695;29;20051;-83
2022/01/13 11:19:02;;;;;;;34.08;18.45;;;6.30;71.30;;;;;;4798136;29;20027;-84
2022/01/13 11:21:28;;;;;;;35.10;19.15;;;6.30;71.70;;;;;;4827958;29;20272;-84
2022/01/13 11:23:56;;;;;;;32.17;17.40;;;6.30;71.40;;;;;;4797842;29;20222;-84
2022/01/13 11:26:27;;;;;;;34.85;16.85;;;6.30;70.50;;;;;;4828242;29;20046;-84
2022/01/13 11:28:57;;;;;;;34.20;17.10;;;6.30;70.70;;;;;;4812810;29;20310;-85
2022/01/13 11:31:23;;;;;;;31.67;18.38;;;6.20;70.60;;;;;;4813034;29;20095;-84
2022/01/13 11:33:50;;;;;;;32.88;18.88;;;6.20;70.90;;;;;;4797754;29;20046;-83
2022/01/13 11:36:16;;;;;;;29.05;17.63;;;6.20;71.60;;;;;;4797617;29;20049;-84
2022/01/13 11:39:05;;;;;;;31.50;17.73;;;6.30;71.50;;;;;;4829704;29;20083;-84
2022/01/13 11:41:31;;;;;;;32.50;17.08;;;6.50;71.10;;;;;;4831290;29;20276;-84
2022/01/13 11:44:16;;;;;;;32.92;17.50;;;6.60;70.40;;;;;;4801193;29;20338;-84
2022/01/13 11:46:46;;;;;;;28.13;15.05;;;6.70;69.70;;;;;;4797304;29;20069;-84
2022/01/13 11:49:31;;;;;;;31.70;16.75;;;6.70;69.80;;;;;;4799726;29;20298;-84
2022/01/13 11:52:14;;;;;;;30.17;16.60;;;6.70;69.70;;;;;;4828896;29;20393;-84
2022/01/13 11:54:41;;;;;;;26.20;15.43;;;6.80;69.50;;;;;;4801335;29;20042;-84
2022/01/13 11:57:27;;;;;;;29.10;16.35;;;6.70;69.60;;;;;;4815536;29;20030;-84
2022/01/13 11:59:56;;;;;;;33.08;15.43;;;6.90;69.80;;;;;;4788143;29;20069;-85
2022/01/13 12:02:23;;;;;;;29.10;15.05;;;6.80;68.70;;;;;;4815345;29;20075;-85
2022/01/13 12:05:09;;;;;;;;;;;6.70;68.70;;;;;;4831201;29;20041;-85
2022/01/13 12:07:43;;;;;;;28.58;15.07;;;6.70;69.00;;;;;;4821027;29;19977;-85
2022/01/13 12:10:30;;;;;;;28.52;15.35;;;6.80;69.40;;;;;;4797179;29;20096;-85
2022/01/13 12:12:56;;;;;;;28.33;14.52;;;6.80;69.30;;;;;;4769691;30;20088;-84
2022/01/13 12:15:24;;;;;;;26.05;14.50;;;6.80;68.50;;;;;;4778686;30;20047;-83
2022/01/13 12:18:03;;;;;;;25.50;14.65;;;6.80;68.90;;;;;;4749033;30;20285;-84
2022/01/13 12:20:46;;;;;;;29.27;14.57;;;6.80;69.20;;;;;;4749474;30;20252;-85
2022/01/13 12:23:43;;;;;;;23.25;13.75;;;6.80;69.00;;;;;;4753707;30;20032;-84
2022/01/13 12:26:33;;;;;;;22.92;14.20;;;6.90;68.60;;;;;;4774455;30;20188;-85
2022/01/13 12:29:22;;;;;;;23.60;13.40;;;7.10;68.10;;;;;;4781097;30;20035;-86
2022/01/13 12:31:59;;;;;;;23.70;13.20;;;7.10;68.10;;;;;;4777400;30;20048;-84
2022/01/13 12:34:27;;;;;;;;;;;7.10;67.80;;;;;;4764122;30;20039;-84
2022/01/13 12:36:57;;;;;;;22.98;11.52;;;7.20;66.80;;;;;;4777304;30;19910;-84
2022/01/13 12:39:24;;;;;;;19.33;10.85;;;7.20;66.50;;;;;;4739093;30;20118;-85
2022/01/13 12:42:01;;;;;;;21.52;11.27;;;7.10;65.90;;;;;;4748995;30;20239;-85
2022/01/13 12:47:13;;;;;;;23.20;11.50;;;7.10;66.60;;;;;;4744857;30;20068;-85
2022/01/13 12:49:39;;;;;;;26.38;12.02;;;7.20;66.40;;;;;;4793268;29;20247;-84
2022/01/13 12:52:07;;;;;;;19.58;11.07;;;7.30;67.00;;;;;;4769637;29;20031;-84
2022/01/13 12:54:33;;;;;;;20.13;11.38;;;7.30;65.20;;;;;;4814732;29;20410;-84
2022/01/13 12:57:06;;;;;;;23.80;11.80;;;7.30;65.30;;;;;;4790706;29;20046;-84
2022/01/13 12:59:33;;;;;;;19.58;11.18;;;7.30;64.60;;;;;;4793877;29;20059;-84
2022/01/13 13:02:00;;;;;;;21.63;11.68;;;7.20;64.70;;;;;;4814290;29;20031;-84
2022/01/13 13:04:30;;;;;;;21.35;11.63;;;7.20;64.70;;;;;;4778483;29;20042;-84
2022/01/13 13:06:56;;;;;;;20.33;11.40;;;7.20;65.20;;;;;;4790182;29;20019;-84
2022/01/13 13:09:25;;;;;;;21.73;11.35;;;7.20;64.80;;;;;;4810763;29;20243;-84
2022/01/13 13:12:00;;;;;;;18.05;10.35;;;7.20;64.40;;;;;;4826766;29;20031;-84
2022/01/13 13:17:28;;;;;;;26.50;12.52;;;7.30;65.10;;;;;;4809903;29;20042;-84
2022/01/13 13:19:54;;;;;;;20.30;11.07;;;7.30;64.60;;;;;;4812097;29;20386;-84
2022/01/13 13:22:20;;;;;;;19.60;11.00;;;7.30;64.40;;;;;;4779140;29;20026;-84
2022/01/13 13:24:46;;;;;;;18.92;10.88;;;7.30;64.00;;;;;;4780657;29;20039;-84
2022/01/13 13:27:11;;;;;;;20.48;11.32;;;7.30;64.70;;;;;;4777658;29;20039;-85
2022/01/13 13:29:37;;;;;;;20.55;11.00;;;7.40;64.40;;;;;;4783860;29;20406;-85
2022/01/13 13:32:04;;;;;;;21.00;11.43;;;7.50;64.30;;;;;;4797051;29;20268;-84
2022/01/13 13:34:31;;;;;;;19.98;11.85;;;7.50;64.00;;;;;;4797284;29;20315;-85
2022/01/13 13:36:58;;;;;;;21.42;11.95;;;7.50;64.30;;;;;;4809260;29;20034;-84
2022/01/13 13:39:26;;;;;;;20.85;10.77;;;7.50;64.50;;;;;;4808924;29;20022;-84
2022/01/13 13:41:55;;;;;;;20.15;11.27;;;7.60;64.60;;;;;;4793251;29;20084;-85
2022/01/13 13:44:26;;;;;;;44.20;11.68;;;7.70;64.10;;;;;;4808739;29;20056;-84
2022/01/13 13:47:10;;;;;;;17.25;9.57;;;7.70;64.10;;;;;;4811183;29;20050;-85
2022/01/13 13:49:38;;;;;;;20.95;10.90;;;7.70;63.70;;;;;;4823512;29;20062;-84
2022/01/13 13:52:09;;;;;;;19.77;10.95;;;7.70;64.10;;;;;;4810913;29;20039;-84
2022/01/13 13:54:36;;;;;;;19.67;10.50;;;7.70;63.50;;;;;;4808483;29;20114;-83
2022/01/13 13:57:07;;;;;;;19.13;9.45;;;7.60;63.40;;;;;;4792598;29;20118;-85
2022/01/13 13:59:41;;;;;;;22.58;9.95;;;7.60;63.10;;;;;;4808498;29;20046;-84
2022/01/13 14:02:25;;;;;;;18.15;9.80;;;7.60;63.30;;;;;;4809505;29;20030;-84
2022/01/13 14:04:52;;;;;;;20.23;9.07;;;7.50;63.30;;;;;;4808872;29;20030;-83
2022/01/13 14:07:39;;;;;;;20.35;9.88;;;7.50;63.50;;;;;;4836559;29;20038;-84
2022/01/13 14:10:13;;;;;;;25.38;10.05;;;7.50;63.00;;;;;;4802474;29;20043;-84
2022/01/13 14:12:39;;;;;;;25.98;9.95;;;7.50;63.00;;;;;;4819201;29;20028;-84
2022/01/13 14:15:23;;;;;;;17.98;9.90;;;7.60;63.20;;;;;;4799680;29;20066;-84
2022/01/13 14:18:07;;;;;;;18.02;10.00;;;7.50;62.40;;;;;;4809964;29;20050;-83
2022/01/13 14:20:35;;;;;;;20.52;9.75;;;7.60;62.30;;;;;;4809757;29;20042;-83
2022/01/13 14:23:03;;;;;;;15.88;8.98;;;7.50;62.30;;;;;;4787253;29;20019;-83
2022/01/13 14:25:38;;;;;;;19.88;9.55;;;7.50;62.40;;;;;;4838397;29;20043;-83
2022/01/13 14:28:22;;;;;;;17.70;9.20;;;7.50;62.90;;;;;;4816457;29;20034;-84
2022/01/13 14:30:49;;;;;;;20.90;9.75;;;7.40;62.50;;;;;;4816425;29;20042;-85
2022/01/13 14:33:21;;;;;;;18.95;10.38;;;7.50;62.90;;;;;;4804462;29;20023;-85
2022/01/13 14:36:04;;;;;;;20.50;9.77;;;7.50;62.70;;;;;;4813732;29;20066;-85
2022/01/13 14:38:57;;;;;;;19.17;9.98;;;7.40;63.20;;;;;;4811516;29;20053;-85
2022/01/13 14:41:34;;;;;;;15.98;8.98;;;7.40;62.80;;;;;;4772380;30;20360;-84
2022/01/13 14:44:07;;;;;;;19.52;9.73;;;7.40;63.80;;;;;;4772876;30;20363;-84
2022/01/13 14:46:39;;;;;;;21.80;9.50;;;7.40;63.90;;;;;;4745301;30;1180334;-85
2022/01/13 14:49:06;;;;;;;16.85;9.15;;;7.40;63.80;;;;;;4785280;30;20761;-85
2022/01/13 14:51:34;;;;;;;16.75;9.40;;;7.30;63.90;;;;;;4763691;30;20072;-83
2022/01/13 14:54:00;;;;;;;16.17;8.38;;;7.40;63.80;;;;;;4784687;30;20039;-85
2022/01/13 14:56:27;;;;;;;20.50;9.37;;;7.30;63.70;;;;;;4779343;30;20232;-85
2022/01/13 14:58:53;;;;;;;21.40;8.23;;;7.30;65.00;;;;;;4772908;30;20320;-85
2022/01/13 15:01:19;;;;;;;16.73;9.02;;;7.30;64.30;;;;;;4761212;30;20362;-85
2022/01/13 15:03:46;;;;;;;14.82;7.95;;;7.30;64.40;;;;;;4791172;30;20385;-84
2022/01/13 15:06:13;;;;;;;18.25;9.25;;;7.30;64.50;;;;;;4788214;30;20056;-84
2022/01/13 15:08:39;;;;;;;14.13;7.75;;;7.30;64.80;;;;;;4788756;30;20364;-84
2022/01/13 15:11:06;;;;;;;14.90;8.15;;;7.30;65.30;;;;;;4773885;30;20083;-85
2022/01/13 15:13:32;;;;;;;15.70;8.83;;;7.20;65.70;;;;;;4776411;30;20027;-84
2022/01/13 15:15:58;;;;;;;13.93;7.57;;;7.20;66.30;;;;;;4766251;30;20051;-84
2022/01/13 15:18:24;;;;;;;17.05;8.82;;;7.10;66.40;;;;;;4799660;29;20039;-84
2022/01/13 15:20:52;;;;;;;21.63;9.05;;;7.10;66.70;;;;;;4779684;29;20119;-85
2022/01/13 15:23:19;;;;;;;15.38;8.52;;;7.10;67.00;;;;;;4785173;29;20034;-84
2022/01/13 15:25:44;;;;;;;20.03;10.20;;;7.10;67.20;;;;;;4767776;29;20151;-84
2022/01/13 15:28:10;;;;;;;17.73;9.32;;;7.10;67.40;;;;;;4806495;29;20039;-85
2022/01/13 15:30:36;;;;;;;19.27;10.65;;;7.00;67.90;;;;;;4794618;29;20073;-84
2022/01/13 15:33:04;;;;;;;19.48;10.40;;;7.00;68.30;;;;;;4792148;29;20082;-85
2022/01/13 15:35:31;;;;;;;21.70;9.27;;;6.90;68.70;;;;;;4799287;29;20031;-84
2022/01/13 15:37:57;;;;;;;;;;;6.90;69.10;;;;;;4807582;29;20034;-84
2022/01/13 15:40:24;;;;;;;17.63;9.20;;;6.80;69.40;;;;;;4807273;29;19905;-84
2022/01/13 15:42:51;;;;;;;16.50;9.13;;;6.80;69.70;;;;;;4821927;29;20046;-84
2022/01/13 15:45:17;;;;;;;19.70;8.53;;;6.70;70.00;;;;;;4811095;29;20030;-86
2022/01/13 15:47:46;;;;;;;21.60;9.35;;;6.70;70.30;;;;;;4822257;29;20067;-85
2022/01/13 15:50:15;;;;;;;17.90;8.95;;;6.70;70.30;;;;;;4794358;29;20034;-85
2022/01/13 15:52:41;;;;;;;19.48;10.05;;;6.70;70.40;;;;;;4806321;29;20034;-84
2022/01/13 15:55:08;;;;;;;16.90;8.87;;;6.70;70.70;;;;;;4820113;29;20039;-86
2022/01/13 15:57:35;;;;;;;16.17;8.95;;;6.60;70.70;;;;;;4810223;29;20031;-84
2022/01/13 16:00:02;;;;;;;16.58;8.63;;;6.60;71.00;;;;;;4800022;29;20054;-84
2022/01/13 16:02:37;;;;;;;16.80;8.63;;;6.60;71.30;;;;;;4805651;29;20027;-84
2022/01/13 16:05:03;;;;;;;17.30;9.82;;;6.60;71.20;;;;;;4806814;29;20042;-84
2022/01/13 16:07:29;;;;;;;21.55;10.30;;;6.70;71.30;;;;;;4796042;29;20289;-84
2022/01/13 16:09:55;;;;;;;19.95;9.70;;;6.70;71.00;;;;;;4795562;29;20058;-83
2022/01/13 16:12:21;;;;;;;16.17;8.87;;;6.70;71.00;;;;;;4793510;29;20397;-84
2022/01/13 16:14:48;;;;;;;15.52;7.93;;;6.80;71.00;;;;;;4781648;29;20043;-84
2022/01/13 16:17:14;;;;;;;20.58;8.55;;;6.80;70.80;;;;;;4791027;29;20051;-83
2022/01/13 16:19:40;;;;;;;12.80;7.40;;;6.80;70.80;;;;;;4783464;29;20037;-84
2022/01/13 16:22:09;;;;;;;14.00;7.78;;;6.80;70.60;;;;;;4762535;29;20306;-83
2022/01/13 16:24:37;;;;;;;15.13;7.80;;;6.80;70.80;;;;;;4796377;29;20370;-84
2022/01/13 16:27:05;;;;;;;13.23;7.55;;;6.70;70.90;;;;;;4793450;29;20061;-83
2022/01/13 16:29:52;;;;;;;14.25;7.80;;;6.70;71.00;;;;;;4789166;29;20392;-83
2022/01/13 16:32:23;;;;;;;18.38;8.05;;;6.70;71.10;;;;;;4774928;29;20035;-84
2022/01/13 16:34:48;;;;;;;19.77;8.13;;;6.70;71.30;;;;;;4792039;29;20130;-83
2022/01/13 16:37:14;;;;;;;11.55;6.38;;;6.70;71.40;;;;;;4793777;29;20082;-84
2022/01/13 16:39:40;;;;;;;13.05;6.45;;;6.60;71.50;;;;;;4777735;29;20043;-84
2022/01/13 16:42:07;;;;;;;11.68;6.63;;;6.60;72.00;;;;;;4777637;29;20065;-84
2022/01/13 16:44:32;;;;;;;12.53;6.60;;;6.60;72.00;;;;;;4788298;29;20043;-84
2022/01/13 16:46:58;;;;;;;12.43;6.70;;;6.60;72.10;;;;;;4765409;29;20063;-83
2022/01/13 16:49:24;;;;;;;10.85;6.35;;;6.70;72.20;;;;;;4772657;29;20031;-84
2022/01/13 16:51:52;;;;;;;17.63;6.38;;;6.70;72.30;;;;;;4780967;29;20326;-83